Warning: Javascript must be enabled to use all the features on this page!


Page Loading - Please Wait...

Click to hideNews Bulletins

Peak Streamflow for the Nation

USGS 01513500 SUSQUEHANNA RIVER AT VESTAL NY

Broome County, New York
Hydrologic Unit Code 02050103
Latitude  42°05'27", Longitude  76°03'22" NAD83
Drainage area 3,941  square miles
Gage datum 798.72 feet above NAVD88
Output formats
Table
Graph
Tab-separated file
peakfq (watstore) format
Reselect output format
Water
Year
Date Gage
Height
(feet)
Stream-
flow
(cfs)
1935 1935-07-08 25.205 77,0002,7
1936 1936-03-18 30.50 107,0007
1937 1937-04-07 17.58 41,300
1938 1938-09-23 19.14 47,600
1939 1939-02-21 21.34 56,200
1940 1940-04-01 26.58 85,500
1941 1941-04-07 20.29 53,400
1942 1942-03-18 18.14 43,900
1943 1942-12-31 27.41 90,500
1944 1944-03-18 19.90 53,900
1945 1945-03-18 19.13 50,400
1946 1946-03-09 20.30 54,700
1947 1947-04-06 20.77 58,400
1948 1948-03-22 27.73 92,400
1949 1948-12-31 18.54 46,800
1950 1950-04-05 21.29 59,300
1951 1950-12-05 20.27 54,500
1952 1952-03-12 18.37 46,000
1953 1953-01-25 17.41 41,800
1954 1954-02-18 17.13 40,600
1955 1955-03-13 17.29 41,300
1956 1956-03-08 22.74 64,000
1957 1957-04-06 16.69 37,400
1958 1958-04-08 22.80 64,300
1959 1959-01-22 20.59 53,700
1960 1960-04-01 23.45 67,600
1961 1961-02-26 24.09 70,800
1962 1962-04-01 21.74 59,100
1963 1963-03-28 22.46 62,600
1964 1964-03-06 25.79 79,200
1965 1965-02-13 13.03 24,300
1966 1966-02-14 16.55 36,800
1967 1967-03-30 15.83 34,200
1968 1968-03-23 18.18 43,200
1969 1969-01-31 18.61 45,000
1970 1970-04-03 18.48 44,500
1971 1971-03-16 16.66 37,300
1972 1972-06-23 22.35 50,4009
1973 1972-11-09 19.79 46,400
1974 1973-12-28 18.24 40,000
1975 1975-09-26 23.09 61,500
1976 1976-02-19 19.43 44,900
1977 1977-03-14 22.68 59,600
1978 1978-04-05 21.13 54,200
1979 1979-03-06 26.62 81,700
1980 1980-03-22 18.26 44,000
1981 1981-02-21 19.43 48,700
1982 1981-10-29 16.64 37,600
1983 1983-04-16 20.51 53,000
1984 1983-12-14 27.03 84,200
1985 1985-03-13 15.96 34,800
1986 1986-03-15 25.11 73,100
1987 1986-11-27 18.46 44,800
1988 1988-05-20 16.41 36,600
1989 1989-05-11 17.67 41,600
1990 1990-02-17 16.69 34,400
1991 1990-10-24 21.07 52,000
1992 1992-03-12 13.51 24,500
1993 1993-04-11 26.25 79,400
1994 1994-04-07 19.39 44,700
1995 1995-03-09 13.80 25,400
1996 1996-01-20 27.86 89,100
1997 1996-12-02 22.51 58,800
1998 1998-01-09 21.56 54,300
1999 1999-01-25 21.27 52,900
2000 2000-02-28 23.62 64,500
2001 2001-04-10 19.49 45,100
2002 2002-03-27 17.09 35,800
2003 2003-03-23 21.01 51,800
2004 2004-09-18 25.94 77,600
2005 2005-04-03 29.14 97,000
2006 2006-06-28 33.66 119,000
2007 2006-11-17 21.67 55,900
2008 2008-03-09 21.01 53,100
2009 2009-03-09 18.52 42,800
2010 2010-01-26 20.89 53,000
2011 2011-09-08 35.26 129,0009
2012 2012-01-28 13.85 26,100
2013 2013-03-13 16.16 34,200
2014 2014-05-17 16.762 36,400
2015 2015-04-10 19.69 47,900
2016 2016-02-26 15.79 32,800
2017 2017-04-07 21.99 57,900
2018 2018-08-15 21.56 56,000
2019 2019-02-09 16.69 36,100
2020 2019-11-01 17.51 39,200
?
  Peak Gage-Height Qualification Codes.
?
  Peak Streamflow Qualification Codes.